Time;durP1;ratioP1;P1;durP2;ratioP2;P2;SDS_P1;SDS_P2;PMS_P1;PMS_P2;Temp;Humidity;BMP_temperature;BMP_pressure;BME280_temperature;BME280_humidity;BME280_pressure;Samples;Min_cycle;Max_cycle;Signal;HPM_P1;HPM_P2
2022/06/24 00:00:42;;;;;;;;;6.25;4.00;;;;;26.70;58.97;100497.50;5064683;28;45342;-82
2022/06/24 00:03:16;;;;;;;;;4.50;3.50;;;;;26.63;71.98;100493.22;5061405;28;45477;-82
2022/06/24 00:05:42;;;;;;;;;3.25;3.25;;;;;26.45;71.91;100484.88;5041927;28;45594;-83
2022/06/24 00:08:07;;;;;;;;;4.00;4.00;;;;;26.23;76.93;100474.81;5059117;28;45581;-83
2022/06/24 00:10:35;;;;;;;;;6.25;4.00;;;;;26.23;81.33;100489.88;5067472;28;45411;-83
2022/06/24 00:13:02;;;;;;;;;6.00;6.00;;;;;26.20;83.72;100501.41;5083373;28;45405;-83
2022/06/24 00:15:34;;;;;;;;;5.00;5.00;;;;;26.07;88.27;100506.13;5087822;27;45269;-82
2022/06/24 00:18:19;;;;;;;;;4.25;3.25;;;;;26.07;82.75;100515.88;5087388;27;45344;-82
2022/06/24 00:20:50;;;;;;;;;4.75;4.50;;;;;25.99;82.89;100512.53;5083667;28;45658;-82
2022/06/24 00:23:18;;;;;;;;;8.00;6.25;;;;;25.92;85.78;100507.38;5080260;28;45330;-82
2022/06/24 00:25:45;;;;;;;;;5.00;4.00;;;;;25.83;89.71;100497.00;5079314;28;45373;-83
2022/06/24 00:28:12;;;;;;;;;6.00;4.25;;;;;25.81;89.73;100512.94;5079300;28;45373;-83
2022/06/24 00:30:52;;;;;;;;;6.50;5.25;;;;;25.66;96.17;100492.09;5084043;28;45687;-83
2022/06/24 00:33:31;;;;;;;;;4.75;4.25;;;;;25.64;100.00;100492.13;5084823;28;45325;-83
2022/06/24 00:35:59;;;;;;;;;5.75;4.50;;;;;25.60;100.00;100485.16;5080580;27;45380;-83
2022/06/24 00:38:34;;;;;;;;;6.25;5.25;;;;;25.63;100.00;100500.09;5079538;28;46189;-83
2022/06/24 00:41:07;;;;;;;;;8.25;5.50;;;;;25.59;100.00;100501.97;5078937;28;45228;-83
2022/06/24 00:43:35;;;;;;;;;5.25;5.00;;;;;25.56;99.83;100506.47;5079495;28;45442;-83
2022/06/24 00:46:14;;;;;;;;;3.75;3.75;;;;;25.54;93.25;100503.81;5079672;28;45224;-83
2022/06/24 00:48:46;;;;;;;;;5.75;5.00;;;;;25.52;91.01;100515.38;5082075;28;46166;-82
2022/06/24 00:51:11;;;;;;;;;4.50;4.50;;;;;25.50;89.17;100505.69;5081209;27;45745;-83
2022/06/24 00:53:45;;;;;;;;;4.25;4.25;;;;;25.52;88.12;100520.69;5079240;27;45161;-82
2022/06/24 00:56:17;;;;;;;;;4.75;4.25;;;;;25.51;88.09;100501.28;5060701;28;45287;-83
2022/06/24 00:59:04;;;;;;;;;4.25;4.25;;;;;25.41;87.25;100492.63;5078655;27;45426;-82
2022/06/24 01:01:32;;;;;;;;;4.00;4.00;;;;;25.46;85.24;100504.03;5078837;27;45250;-82
2022/06/24 01:03:59;;;;;;;;;4.50;4.50;;;;;25.44;85.64;100503.19;5061765;28;45378;-82
2022/06/24 01:06:26;;;;;;;;;2.50;2.50;;;;;25.40;83.38;100497.94;5083675;28;45326;-82
2022/06/24 01:08:52;;;;;;;;;5.50;5.00;;;;;25.40;83.29;100506.78;5083852;28;46282;-82
2022/06/24 01:11:27;;;;;;;;;4.50;4.50;;;;;25.32;82.80;100491.00;5086735;28;45266;-82
2022/06/24 01:13:54;;;;;;;;;5.00;4.00;;;;;25.34;82.36;100504.25;5083178;27;45328;-82
2022/06/24 01:16:21;;;;;;;;;4.25;4.25;;;;;25.31;82.80;100497.25;5065820;28;45274;-82
2022/06/24 01:18:51;;;;;;;;;4.50;4.25;;;;;25.23;84.01;100488.56;5083280;28;45315;-82
2022/06/24 01:21:35;;;;;;;;;7.00;4.75;;;;;25.28;82.52;100497.31;5078074;28;45891;-82
2022/06/24 01:24:10;;;;;;;;;5.00;5.00;;;;;25.19;81.25;100482.47;5078635;28;45871;-82
2022/06/24 01:26:37;;;;;;;;;4.75;3.75;;;;;25.12;81.56;100472.91;5078383;28;45387;-82
2022/06/24 01:29:03;;;;;;;;;4.00;4.00;;;;;25.17;81.62;100484.28;5076902;28;46328;-83
2022/06/24 01:31:29;;;;;;;;;4.50;4.50;;;;;25.01;82.01;100461.66;5077811;27;45356;-84
2022/06/24 01:33:55;;;;;;;;;5.50;4.75;;;;;25.11;79.83;100480.88;5078283;28;45374;-82
2022/06/24 01:36:21;;;;;;;;;5.00;5.00;;;;;24.99;81.55;100468.78;5078373;27;45442;-83
2022/06/24 01:38:46;;;;;;;;;4.00;4.00;;;;;25.02;82.09;100485.47;5078447;28;46089;-83
2022/06/24 01:41:12;;;;;;;;;4.25;4.25;;;;;24.91;81.04;100468.91;5081364;28;45287;-82
2022/06/24 01:43:38;;;;;;;;;4.75;4.50;;;;;24.87;80.98;100470.75;5064638;28;45489;-82
2022/06/24 01:46:03;;;;;;;;;4.75;4.25;;;;;24.79;82.27;100458.56;5063613;28;45569;-82
2022/06/24 01:48:29;;;;;;;;;3.75;3.75;;;;;24.85;83.69;100506.13;5078177;28;45556;-83
2022/06/24 01:50:55;;;;;;;;;3.50;2.75;;;;;24.73;85.98;100531.94;5077970;27;45306;-83
2022/06/24 01:53:21;;;;;;;;;4.25;4.25;;;;;24.61;92.81;100570.97;5077783;28;45429;-83
2022/06/24 01:55:46;;;;;;;;;6.50;5.00;;;;;24.36;100.00;100558.16;5080182;28;45426;-83
2022/06/24 01:58:12;;;;;;;;;4.00;4.00;;;;;24.13;100.00;100537.38;5077543;28;45406;-82
2022/06/24 02:00:38;;;;;;;;;5.00;5.00;;;;;23.92;100.00;100536.75;5077825;27;45709;-82
2022/06/24 02:03:05;;;;;;;;;3.25;3.25;;;;;23.75;100.00;100524.66;5080171;28;45313;-83
2022/06/24 02:05:31;;;;;;;;;4.00;4.00;;;;;23.80;100.00;100537.81;5082247;28;45355;-83
2022/06/24 02:07:57;;;;;;;;;3.50;3.50;;;;;23.72;100.00;100526.47;5077848;28;46109;-83
2022/06/24 02:15:52;;;;;;;;;3.00;3.00;;;;;23.55;100.00;100508.22;5081596;27;45233;-82
2022/06/24 02:18:17;;;;;;;;;3.75;3.75;;;;;23.52;100.00;100500.31;5077584;28;46092;-82
2022/06/24 02:20:43;;;;;;;;;4.75;3.50;;;;;23.50;100.00;100503.84;5075826;28;45382;-82
2022/06/24 02:23:09;;;;;;;;;4.50;4.00;;;;;23.44;100.00;100506.59;5077367;28;45264;-82
2022/06/24 02:25:34;;;;;;;;;3.25;3.25;;;;;23.41;100.00;100490.78;5059610;28;45733;-82
2022/06/24 02:28:00;;;;;;;;;3.00;2.00;;;;;23.40;100.00;100496.09;5077273;28;45387;-82
2022/06/24 02:30:26;;;;;;;;;3.00;3.00;;;;;23.44;100.00;100506.59;5077073;28;45465;-82
2022/06/24 02:32:52;;;;;;;;;6.00;2.75;;;;;23.37;100.00;100506.69;5076867;28;45478;-82
2022/06/24 02:35:18;;;;;;;;;4.00;4.00;;;;;23.30;100.00;100501.50;5077307;28;45429;-83
2022/06/24 02:37:43;;;;;;;;;3.25;3.25;;;;;23.37;100.00;100523.44;5076987;27;46189;-83
2022/06/24 02:42:58;;;;;;;;;5.00;4.00;;;;;23.18;100.00;100496.34;5077267;27;45312;-82
2022/06/24 02:45:24;;;;;;;;;4.75;4.75;;;;;23.20;100.00;100476.09;5077319;28;45345;-81
2022/06/24 02:47:49;;;;;;;;;4.75;4.00;;;;;23.11;100.00;100458.56;5080844;27;45445;-82
2022/06/24 02:50:15;;;;;;;;;5.50;3.50;;;;;23.13;100.00;100479.66;5078149;28;45382;-82
2022/06/24 02:52:41;;;;;;;;;3.00;3.00;;;;;23.12;100.00;100483.19;5059472;28;45846;-81
2022/06/24 02:55:07;;;;;;;;;3.00;3.00;;;;;23.06;100.00;100473.56;5065003;27;45454;-81
2022/06/24 02:57:32;;;;;;;;;4.25;3.50;;;;;23.16;100.00;100484.91;5085169;28;45524;-82
2022/06/24 02:59:58;;;;;;;;;3.00;3.00;;;;;23.14;100.00;100479.66;5081027;28;45351;-82
2022/06/24 03:02:24;;;;;;;;;3.25;3.25;;;;;23.06;100.00;100464.78;5079157;28;45358;-82
2022/06/24 03:04:49;;;;;;;;;3.75;3.25;;;;;23.11;100.00;100466.50;5077925;27;45477;-82
2022/06/24 03:07:15;;;;;;;;;6.00;4.00;;;;;23.10;100.00;100467.38;5076029;28;45823;-82
2022/06/24 03:09:41;;;;;;;;;4.00;4.00;;;;;23.16;100.00;100477.84;5076420;28;45362;-81
2022/06/24 03:12:07;;;;;;;;;4.00;4.00;;;;;23.17;100.00;100476.09;5076622;28;45196;-82
2022/06/24 03:14:32;;;;;;;;;4.00;4.00;;;;;23.13;100.00;100464.72;5077019;28;45584;-82
2022/06/24 03:16:58;;;;;;;;;4.00;4.00;;;;;23.22;100.00;100476.06;5076254;28;45545;-82
2022/06/24 03:19:23;;;;;;;;;4.00;4.00;;;;;23.13;100.00;100461.19;5077697;28;45453;-83
2022/06/24 03:21:49;;;;;;;;;3.50;3.00;;;;;23.21;100.00;100474.31;5059513;28;45307;-83
2022/06/24 03:24:15;;;;;;;;;3.00;3.00;;;;;23.20;100.00;100473.47;5079977;27;45703;-82
2022/06/24 03:26:41;;;;;;;;;2.00;2.00;;;;;23.13;100.00;100467.34;5077420;28;45413;-82
2022/06/24 03:29:07;;;;;;;;;3.00;3.00;;;;;23.16;100.00;100471.72;5076216;28;45477;-82
2022/06/24 03:31:32;;;;;;;;;3.50;3.50;;;;;23.11;100.00;100468.28;5076948;28;45339;-83
2022/06/24 03:33:58;;;;;;;;;2.75;2.75;;;;;23.10;100.00;100475.28;5079993;27;45623;-83
2022/06/24 03:36:25;;;;;;;;;2.00;2.00;;;;;23.08;100.00;100477.09;5079690;28;46514;-83
2022/06/24 03:38:51;;;;;;;;;3.00;3.00;;;;;23.06;100.00;100464.78;5080079;28;45331;-83
2022/06/24 03:41:16;;;;;;;;;4.00;3.50;;;;;22.97;100.00;100456.09;5079801;28;45262;-83
2022/06/24 03:43:42;;;;;;;;;5.00;3.50;;;;;23.00;100.00;100468.38;5064396;28;45503;-83
2022/06/24 03:46:08;;;;;;;;;4.00;4.00;;;;;22.90;100.00;100461.47;5087739;28;45511;-83
2022/06/24 03:48:33;;;;;;;;;3.25;2.75;;;;;22.91;100.00;100471.13;5086464;27;45308;-83
2022/06/24 03:50:59;;;;;;;;;4.00;4.00;;;;;22.92;100.00;100476.38;5082696;28;45323;-83
2022/06/24 03:53:24;;;;;;;;;2.75;2.75;;;;;22.78;100.00;100452.81;5087150;28;45406;-83
2022/06/24 03:55:51;;;;;;;;;3.75;3.00;;;;;22.83;100.00;100469.47;5083362;28;45816;-83
2022/06/24 03:58:18;;;;;;;;;4.00;4.00;;;;;22.80;100.00;100469.50;5080500;28;45276;-83
2022/06/24 04:00:44;;;;;;;;;2.25;2.25;;;;;22.63;100.00;100450.31;5079947;27;45415;-83
2022/06/24 04:03:09;;;;;;;;;5.00;3.25;;;;;22.67;100.00;100466.13;5061351;28;45357;-83
2022/06/24 04:05:35;;;;;;;;;3.00;3.00;;;;;22.52;100.00;100442.53;5079198;28;46246;-83
2022/06/24 04:08:01;;;;;;;;;4.00;4.00;;;;;22.53;100.00;100442.50;5079746;28;45333;-83
2022/06/24 04:10:27;;;;;;;;;3.00;3.00;;;;;22.57;100.00;100449.50;5079538;27;45224;-83
2022/06/24 04:12:53;;;;;;;;;4.00;4.00;;;;;22.52;100.00;100445.19;5079806;28;45245;-83
2022/06/24 04:15:19;;;;;;;;;4.00;4.00;;;;;22.64;100.00;100460.00;5079025;27;46300;-83
2022/06/24 04:17:47;;;;;;;;;4.00;4.00;;;;;22.64;100.00;100463.53;5061236;28;45789;-83
2022/06/24 04:20:17;;;;;;;;;3.25;3.25;;;;;22.66;100.00;100461.75;5080193;28;45382;-83
2022/06/24 04:22:44;;;;;;;;;6.00;4.00;;;;;22.69;100.00;100461.69;5081150;28;45444;-83
2022/06/24 04:25:10;;;;;;;;;3.50;3.50;;;;;22.69;100.00;100468.75;5081381;28;45500;-83
2022/06/24 04:27:36;;;;;;;;;4.50;4.50;;;;;22.70;100.00;100470.50;5067112;28;45359;-83
2022/06/24 04:30:07;;;;;;;;;4.25;3.75;;;;;22.73;100.00;100473.97;5088792;28;45343;-83
2022/06/24 04:32:33;;;;;;;;;3.00;2.50;;;;;22.72;100.00;100480.13;5083576;27;45424;-82
2022/06/24 04:34:59;;;;;;;;;4.00;4.00;;;;;22.69;100.00;100474.88;5087864;27;45420;-82
2022/06/24 04:37:25;;;;;;;;;4.00;4.00;;;;;22.64;100.00;100476.72;5084530;28;45435;-83
2022/06/24 04:39:51;;;;;;;;;5.00;5.00;;;;;22.60;100.00;100463.56;5063056;28;45802;-82
2022/06/24 04:42:16;;;;;;;;;3.75;3.50;;;;;22.61;100.00;100460.03;5080254;27;45350;-82
2022/06/24 04:44:42;;;;;;;;;4.00;4.00;;;;;22.74;100.00;100482.75;5077526;28;45858;-82
2022/06/24 04:47:08;;;;;;;;;5.00;5.00;;;;;22.68;100.00;100477.56;5078661;28;45309;-82
2022/06/24 04:49:33;;;;;;;;;4.00;4.00;;;;;22.68;100.00;100472.28;5079389;27;45387;-81
2022/06/24 04:51:59;;;;;;;;;4.50;4.50;;;;;22.72;100.00;100472.22;5079017;28;45487;-81
2022/06/24 04:54:25;;;;;;;;;4.00;4.00;;;;;22.67;100.00;100476.69;5078480;27;45354;-81
2022/06/24 04:56:51;;;;;;;;;3.00;3.00;;;;;22.74;100.00;100485.38;5079428;27;45324;-82
2022/06/24 04:59:17;;;;;;;;;5.00;4.00;;;;;22.73;100.00;100479.25;5079389;27;45434;-82
2022/06/24 05:01:43;;;;;;;;;4.75;4.75;;;;;22.74;100.00;100482.75;5085603;28;45328;-82
2022/06/24 05:04:08;;;;;;;;;3.00;3.00;;;;;22.75;100.00;100483.63;5084969;28;46123;-82
2022/06/24 05:06:34;;;;;;;;;5.00;4.00;;;;;22.72;100.00;100471.34;5066453;28;45426;-82
2022/06/24 05:08:59;;;;;;;;;4.00;4.00;;;;;22.62;100.00;100467.06;5079298;28;45334;-82
2022/06/24 05:11:25;;;;;;;;;4.00;4.00;;;;;22.60;100.00;100474.13;5078729;27;45318;-82
2022/06/24 05:13:51;;;;;;;;;4.00;4.00;;;;;22.57;100.00;100478.53;5078281;28;46065;-82
2022/06/24 05:16:17;;;;;;;;;6.00;4.75;;;;;22.54;100.00;100478.56;5077244;28;45818;-82
2022/06/24 05:18:42;;;;;;;;;5.50;5.50;;;;;22.42;100.00;100468.13;5077667;28;45412;-82
2022/06/24 05:21:09;;;;;;;;;5.75;5.75;;;;;22.34;100.00;100472.56;5081041;27;45584;-83
2022/06/24 05:23:34;;;;;;;;;4.75;4.00;;;;;22.36;100.00;100476.94;5086361;28;46185;-83
2022/06/24 05:26:00;;;;;;;;;7.00;4.00;;;;;22.29;100.00;100477.91;5082295;28;45339;-83
2022/06/24 05:28:25;;;;;;;;;4.25;4.25;;;;;22.20;100.00;100476.22;5080644;28;45402;-83
2022/06/24 05:30:55;;;;;;;;;5.25;4.25;;;;;22.29;100.00;100483.16;5058283;28;45232;-83
2022/06/24 05:33:21;;;;;;;;;4.75;4.75;;;;;22.31;100.00;100489.31;5079658;28;45516;-83
2022/06/24 05:35:47;;;;;;;;;6.25;5.25;;;;;22.17;100.00;100454.28;5082562;27;45468;-83
2022/06/24 05:38:13;;;;;;;;;5.00;5.00;;;;;22.31;100.00;100476.13;5078030;27;45420;-83
2022/06/24 05:40:38;;;;;;;;;6.00;5.00;;;;;22.35;100.00;100474.31;5078235;28;45391;-83
2022/06/24 05:43:04;;;;;;;;;6.25;4.00;;;;;22.29;100.00;100471.75;5076897;28;46059;-83
2022/06/24 05:45:29;;;;;;;;;5.00;5.00;;;;;22.19;100.00;100469.19;5076479;28;45408;-83
2022/06/24 05:47:55;;;;;;;;;5.00;5.00;;;;;22.33;100.00;100484.91;5077401;28;45311;-83
2022/06/24 05:50:21;;;;;;;;;4.00;4.00;;;;;22.40;100.00;100486.63;5077928;28;45312;-84
2022/06/24 05:55:30;;;;;;;;;5.00;4.75;;;;;22.48;100.00;100494.47;5057846;28;45384;-81
2022/06/24 05:57:56;;;;;;;;;5.00;5.00;;;;;22.47;100.00;100503.25;5061805;28;45375;-86
2022/06/24 06:00:21;;;;;;;;;5.00;5.00;;;;;22.44;100.00;100497.16;5057876;28;45479;-81
2022/06/24 06:02:47;;;;;;;;;4.50;4.50;;;;;22.44;100.00;100505.91;5057355;28;45915;-81
2022/06/24 06:05:13;;;;;;;;;6.00;4.25;;;;;22.46;100.00;100504.16;5060151;28;45250;-81
2022/06/24 06:07:39;;;;;;;;;4.00;4.00;;;;;22.46;100.00;100504.16;5063429;28;45363;-78
2022/06/24 06:10:05;;;;;;;;;6.00;5.75;;;;;22.31;100.00;100483.16;5065517;28;45252;-81
2022/06/24 06:12:34;;;;;;;;;5.50;5.50;;;;;22.39;100.00;100500.66;5065060;28;45536;-81
2022/06/24 06:14:59;;;;;;;;;5.50;4.50;;;;;22.36;100.00;100510.38;5068614;28;46527;-80
2022/06/24 06:17:25;;;;;;;;;7.00;5.50;;;;;22.37;100.00;100504.22;5076997;28;45428;-82
2022/06/24 06:19:51;;;;;;;;;6.50;5.50;;;;;22.41;100.00;100514.75;5077960;28;45572;-80
2022/06/24 06:22:16;;;;;;;;;5.00;4.75;;;;;22.32;100.00;100491.06;5079303;27;45493;-78
2022/06/24 06:24:43;;;;;;;;;4.00;4.00;;;;;22.39;100.00;100507.72;5062885;28;45424;-80
2022/06/24 06:27:09;;;;;;;;;4.00;4.00;;;;;22.32;100.00;100498.09;5079397;27;45486;-81
2022/06/24 06:29:35;;;;;;;;;4.00;4.00;;;;;22.33;100.00;100503.38;5076757;28;45419;-80
2022/06/24 06:32:00;;;;;;;;;5.50;5.00;;;;;22.33;100.00;100505.13;5075972;28;45850;-81
2022/06/24 06:34:26;;;;;;;;;4.00;4.00;;;;;22.24;100.00;100498.19;5077559;27;45503;-81
2022/06/24 06:36:52;;;;;;;;;4.00;3.00;;;;;22.32;100.00;100513.91;5080264;27;45344;-81
2022/06/24 06:39:17;;;;;;;;;3.75;3.25;;;;;22.22;100.00;100510.50;5092027;27;45372;-81
2022/06/24 06:41:46;;;;;;;;;4.50;4.50;;;;;22.21;100.00;100500.84;5102536;27;45241;-91
2022/06/24 06:44:16;;;;;;;;;4.50;4.50;;;;;22.32;100.00;100516.53;5086108;27;45540;-80
2022/06/24 06:46:42;;;;;;;;;5.25;3.50;;;;;22.28;100.00;100505.16;5059639;28;45438;-82
2022/06/24 06:49:08;;;;;;;;;4.00;4.00;;;;;22.41;100.00;100511.22;5076846;27;45514;-83
2022/06/24 06:51:34;;;;;;;;;3.00;3.00;;;;;22.39;100.00;100498.03;5078060;28;45236;-86
2022/06/24 06:54:00;;;;;;;;;7.00;4.00;;;;;22.60;100.00;100516.34;5084064;28;45342;-86
2022/06/24 06:56:25;;;;;;;;;3.25;3.25;;;;;22.64;100.00;100507.50;5096350;28;45429;-84
2022/06/24 06:58:51;;;;;;;;;3.75;3.75;;;;;22.70;100.00;100521.50;5104768;27;45153;-85
2022/06/24 07:01:16;;;;;;;;;3.25;3.25;;;;;22.63;100.00;100514.53;5100535;27;45463;-82
2022/06/24 07:03:42;;;;;;;;;5.00;4.25;;;;;22.70;100.00;100524.13;5095621;27;45267;-80
2022/06/24 07:06:08;;;;;;;;;5.00;3.75;;;;;22.71;100.00;100514.47;5076021;28;45420;-79
2022/06/24 07:08:33;;;;;;;;;3.00;3.00;;;;;22.74;100.00;100514.41;5078921;27;45620;-81
2022/06/24 07:10:59;;;;;;;;;5.00;4.75;;;;;22.80;100.00;100519.66;5078688;27;45871;-84
2022/06/24 07:13:25;;;;;;;;;4.25;4.25;;;;;22.85;100.00;100522.25;5078527;27;45435;-82
2022/06/24 07:15:51;;;;;;;;;4.00;4.00;;;;;22.79;100.00;100499.41;5080839;27;45504;-81
2022/06/24 07:18:16;;;;;;;;;5.00;4.00;;;;;22.95;100.00;100518.59;5081241;27;45419;-87
2022/06/24 07:20:43;;;;;;;;;5.50;5.50;;;;;22.97;100.00;100503.63;5071673;27;46627;-82
2022/06/24 07:23:09;;;;;;;;;6.00;4.00;;;;;22.97;100.00;100492.19;5078520;27;45208;-80
2022/06/24 07:25:35;;;;;;;;;4.33;4.00;;;;;23.06;100.00;100502.63;5097887;27;45290;-81
2022/06/24 07:28:00;;;;;;;;;6.00;4.75;;;;;23.06;100.00;100499.97;5097356;27;45612;-81
2022/06/24 07:30:27;;;;;;;;;5.00;5.00;;;;;22.98;100.00;100478.97;5079402;27;46260;-81
2022/06/24 07:32:52;;;;;;;;;4.00;4.00;;;;;23.14;100.00;100498.16;5092486;27;45370;-89
2022/06/24 07:35:18;;;;;;;;;6.00;5.00;;;;;23.08;100.00;100482.38;5082197;27;45356;-82
2022/06/24 07:37:44;;;;;;;;;4.25;3.75;;;;;23.06;100.00;100483.28;5066818;27;45527;-81
2022/06/24 07:40:10;;;;;;;;;4.75;3.75;;;;;23.12;100.00;100488.47;5061310;28;45460;-82
2022/06/24 07:42:36;;;;;;;;;4.00;4.00;;;;;23.13;100.00;100496.41;5065051;27;45727;-83
2022/06/24 07:45:02;;;;;;;;;5.25;5.25;;;;;23.14;100.00;100479.66;5063931;28;45369;-83
2022/06/24 07:47:28;;;;;;;;;5.75;4.00;;;;;23.26;100.00;100496.28;5065146;28;45272;-83
2022/06/24 07:49:54;;;;;;;;;5.75;4.00;;;;;23.16;100.00;100477.84;5093336;27;45630;-83
2022/06/24 07:52:19;;;;;;;;;6.00;5.00;;;;;23.09;100.00;100470.91;5084511;27;45366;-81
2022/06/24 07:54:45;;;;;;;;;5.00;5.00;;;;;23.13;100.00;100482.31;5099387;27;45296;-82
2022/06/24 07:57:10;;;;;;;;;5.75;4.00;;;;;23.06;100.00;100475.34;5089961;27;45337;-82
2022/06/24 07:59:37;;;;;;;;;7.00;4.00;;;;;23.20;100.00;100499.88;5082278;27;45859;-81
2022/06/24 08:02:07;;;;;;;;;4.25;4.25;;;;;23.08;100.00;100484.16;5096142;27;45405;-85
2022/06/24 08:04:33;;;;;;;;;3.00;3.00;;;;;23.20;100.00;100494.59;5097211;27;45486;-83
2022/06/24 08:06:58;;;;;;;;;6.00;4.00;;;;;23.27;100.00;100495.38;5094771;27;45550;-81
2022/06/24 08:09:32;;;;;;;;;6.00;4.75;;;;;23.38;100.00;100488.16;5096386;27;45401;-82
2022/06/24 08:12:00;;;;;;;;;5.00;4.50;;;;;23.51;100.00;100494.19;5096301;27;45745;-82
2022/06/24 08:14:26;;;;;;;;;5.00;4.00;;;;;23.62;98.85;100483.44;5094446;27;45368;-82
2022/06/24 08:16:51;;;;;;;;;5.00;5.00;;;;;23.67;97.37;100497.47;5068531;27;45243;-80
2022/06/24 08:19:17;;;;;;;;;3.75;3.75;;;;;23.65;95.93;100489.53;5057762;28;45884;-80
2022/06/24 08:21:43;;;;;;;;;5.50;5.50;;;;;23.69;94.92;100500.09;5061331;28;45279;-80
2022/06/24 08:24:12;;;;;;;;;4.75;4.75;;;;;23.68;94.65;100493.94;5059693;28;45483;-79
2022/06/24 08:26:38;;;;;;;;;5.25;5.25;;;;;23.68;93.33;100499.22;5059448;28;45527;-80
2022/06/24 08:29:04;;;;;;;;;4.00;4.00;;;;;23.63;90.57;100495.75;5059483;28;46481;-81
2022/06/24 08:31:30;;;;;;;;;4.50;3.50;;;;;23.62;88.74;100500.19;5075892;27;45517;-81
2022/06/24 08:33:55;;;;;;;;;5.50;4.00;;;;;23.68;87.83;100503.63;5102733;27;45406;-81
2022/06/24 08:36:26;;;;;;;;;5.00;4.00;;;;;23.59;87.81;100481.72;5108052;27;45579;-81
2022/06/24 08:38:52;;;;;;;;;4.50;4.00;;;;;23.73;88.61;100497.38;5102641;27;45628;-82
2022/06/24 08:41:25;;;;;;;;;2.50;2.50;;;;;23.74;86.96;100492.97;5098379;27;45422;-81
2022/06/24 08:43:52;;;;;;;;;3.00;3.00;;;;;23.71;85.26;100496.50;5100976;27;45320;-77
2022/06/24 08:46:46;;;;;;;;;3.25;3.25;;;;;23.68;84.41;100491.28;5081270;27;45351;-81
2022/06/24 08:49:12;;;;;;;;;4.50;3.50;;;;;23.74;84.89;100487.69;5094204;27;45656;-82
2022/06/24 08:51:40;;;;;;;;;3.75;3.00;;;;;23.78;83.26;100470.88;5083164;27;45453;-84
2022/06/24 08:54:09;;;;;;;;;3.00;3.00;;;;;23.87;81.69;100480.44;5098108;27;45278;-83
2022/06/24 08:56:35;;;;;;;;;2.25;2.00;;;;;24.02;80.17;100496.09;5091056;27;45309;-84
2022/06/24 08:59:02;;;;;;;;;3.00;2.00;;;;;24.08;78.26;100488.06;5081875;27;45991;-81
2022/06/24 09:01:27;;;;;;;;;2.00;2.00;;;;;24.08;79.54;100489.84;5078035;28;45894;-82
2022/06/24 09:03:53;;;;;;;;;3.50;2.50;;;;;24.06;79.35;100484.56;5077473;28;45474;-81
2022/06/24 09:06:19;;;;;;;;;2.50;2.50;;;;;24.03;78.85;100475.81;5078587;28;45602;-81
2022/06/24 09:08:47;;;;;;;;;3.00;2.50;;;;;24.09;80.04;100471.28;5078139;28;45413;-82
2022/06/24 09:11:14;;;;;;;;;2.75;2.75;;;;;24.07;80.44;100453.72;5078197;28;46136;-82
2022/06/24 09:13:50;;;;;;;;;2.00;2.00;;;;;24.19;80.02;100476.41;5078620;28;45359;-82
2022/06/24 09:16:20;;;;;;;;;4.50;3.25;;;;;24.19;79.62;100461.41;5078466;28;45835;-82
2022/06/24 09:18:58;;;;;;;;;4.00;2.00;;;;;24.22;79.84;100457.84;5078640;28;46214;-82
2022/06/24 09:21:28;;;;;;;;;2.25;2.00;;;;;24.33;80.79;100449.72;5078243;28;45496;-82
2022/06/24 09:23:59;;;;;;;;;2.00;2.00;;;;;24.35;78.67;100440.84;5043956;28;45396;-82
2022/06/24 09:26:41;;;;;;;;;1.00;1.00;;;;;24.35;76.95;100461.16;5086110;28;45443;-84
2022/06/24 09:29:10;;;;;;;;;3.00;3.00;;;;;24.23;75.57;100455.16;5087481;28;45324;-84
2022/06/24 09:31:38;;;;;;;;;3.00;2.75;;;;;24.05;75.91;100455.50;5083665;28;45098;-82
2022/06/24 09:34:14;;;;;;;;;4.00;3.00;;;;;23.85;76.41;100451.38;5081719;28;45241;-84
2022/06/24 09:36:43;;;;;;;;;3.00;3.00;;;;;23.67;77.00;100441.97;5079566;28;45357;-85
2022/06/24 09:39:11;;;;;;;;;2.25;2.00;;;;;23.58;78.51;100450.03;5078627;28;46093;-87
2022/06/24 09:41:49;;;;;;;;;1.25;1.25;;;;;23.53;79.97;100441.28;5078708;28;45734;-84
2022/06/24 09:44:16;;;;;;;;;2.25;2.25;;;;;23.51;79.11;100430.75;5078750;28;45289;-84
2022/06/24 09:46:42;;;;;;;;;3.00;2.00;;;;;23.67;80.32;100422.56;5078600;28;45537;-85
2022/06/24 09:49:12;;;;;;;;;0.00;0.00;;;;;23.75;78.68;100418.06;5077725;28;45701;-83
2022/06/24 09:51:40;;;;;;;;;5.25;3.00;;;;;23.81;79.02;100433.81;5079016;28;45355;-83
2022/06/24 09:54:07;;;;;;;;;2.00;2.00;;;;;23.80;79.11;100426.78;5079164;28;45256;-83
2022/06/24 09:56:34;;;;;;;;;2.00;2.00;;;;;23.80;77.73;100424.13;5077288;27;45547;-83
2022/06/24 10:01:46;;;;;;;;;2.00;2.00;;;;;23.70;76.09;100415.50;5078397;28;45749;-82
2022/06/24 10:04:14;;;;;;;;;2.50;1.50;;;;;23.76;76.58;100420.66;5081513;28;45285;-82
2022/06/24 10:06:43;;;;;;;;;1.00;1.00;;;;;23.80;76.64;100403.88;5080144;28;45260;-82
2022/06/24 10:09:10;;;;;;;;;2.00;2.00;;;;;23.85;75.73;100430.22;5078041;28;46295;-81
2022/06/24 10:11:38;;;;;;;;;2.75;2.75;;;;;23.70;76.83;100406.69;5078517;28;45663;-82
2022/06/24 10:14:04;;;;;;;;;3.50;2.00;;;;;23.76;77.31;100403.91;5078257;28;45227;-82
2022/06/24 10:16:31;;;;;;;;;1.00;1.00;;;;;23.78;77.04;100412.69;5079041;28;45701;-82
2022/06/24 10:18:58;;;;;;;;;1.00;1.00;;;;;23.81;77.22;100425.88;5085294;28;45932;-82
2022/06/24 10:21:24;;;;;;;;;3.00;1.25;;;;;23.78;76.93;100416.25;5084233;28;45405;-81
2022/06/24 10:23:54;;;;;;;;;2.00;2.00;;;;;23.78;77.08;100408.31;5080156;28;45439;-84
2022/06/24 10:26:22;;;;;;;;;2.00;2.00;;;;;23.84;76.73;100417.03;5080979;28;45411;-83
2022/06/24 10:29:00;;;;;;;;;1.75;1.75;;;;;23.86;77.17;100424.06;5077962;28;46637;-82
2022/06/24 10:31:54;;;;;;;;;3.00;3.00;;;;;23.90;77.08;100427.50;5077194;28;45358;-82
2022/06/24 10:34:22;;;;;;;;;2.25;2.25;;;;;23.90;77.17;100424.88;5077442;28;45316;-81
2022/06/24 10:36:52;;;;;;;;;3.00;2.00;;;;;23.88;78.30;100416.09;5061793;28;45422;-81
2022/06/24 10:39:23;;;;;;;;;1.00;1.00;;;;;23.92;77.50;100413.34;5081150;28;46013;-81
2022/06/24 10:42:20;;;;;;;;;2.00;1.00;;;;;23.95;77.74;100420.38;5061233;28;45686;-81
2022/06/24 10:44:59;;;;;;;;;2.00;1.25;;;;;23.90;78.43;100419.56;5064375;28;45425;-82
2022/06/24 10:47:43;;;;;;;;;2.50;2.00;;;;;23.91;78.41;100405.47;5079692;28;45427;-82
2022/06/24 10:50:14;;;;;;;;;1.50;1.25;;;;;24.00;75.57;100407.09;5078514;28;46219;-83
2022/06/24 10:52:50;;;;;;;;;1.75;1.75;;;;;24.15;74.60;100408.59;5077805;28;45730;-82
2022/06/24 10:58:03;;;;;;;;;0.50;0.50;;;;;24.31;73.21;100401.25;5078881;28;45368;-82
2022/06/24 11:00:51;;;;;;;;;2.00;2.00;;;;;24.30;73.92;100402.16;5077738;28;45281;-82
2022/06/24 11:03:26;;;;;;;;;1.00;1.00;;;;;24.29;74.09;100406.56;5077753;28;45398;-83
2022/06/24 11:05:51;;;;;;;;;1.00;1.00;;;;;24.27;73.23;100405.72;5077888;28;45264;-82
2022/06/24 11:08:20;;;;;;;;;1.00;1.00;;;;;24.25;73.65;100424.28;5077700;28;45496;-83
2022/06/24 11:10:52;;;;;;;;;2.50;1.00;;;;;24.22;76.03;100429.63;5078832;28;45397;-83
2022/06/24 11:13:21;;;;;;;;;1.00;1.00;;;;;24.08;78.77;100402.56;5082021;28;45268;-82
2022/06/24 11:15:54;;;;;;;;;1.00;1.00;;;;;24.17;82.63;100434.13;5099058;27;45488;-82
2022/06/24 11:18:42;;;;;;;;;1.00;1.00;;;;;24.09;91.95;100431.63;5063155;28;45533;-82
2022/06/24 11:21:09;;;;;;;;;2.00;2.00;;;;;24.06;97.63;100429.00;5081702;28;45275;-83
2022/06/24 11:23:38;;;;;;;;;2.50;2.50;;;;;24.09;96.47;100426.31;5063931;28;45337;-84
2022/06/24 11:26:15;;;;;;;;;1.00;1.00;;;;;24.07;97.67;100408.75;5079000;28;45427;-83
2022/06/24 11:28:42;;;;;;;;;5.25;4.00;;;;;24.25;100.00;100418.09;5080182;28;45483;-84
2022/06/24 11:31:29;;;;;;;;;1.00;1.00;;;;;24.35;98.72;100418.81;5077485;28;46340;-83
2022/06/24 11:34:02;;;;;;;;;2.50;2.00;;;;;24.31;98.13;100412.72;5059586;28;45469;-85
2022/06/24 11:36:28;;;;;;;;;1.75;1.75;;;;;24.06;94.55;100386.69;5060001;28;45337;-82
2022/06/24 11:38:59;;;;;;;;;1.00;1.00;;;;;24.05;95.20;100402.59;5078008;28;45551;-85
2022/06/24 11:41:30;;;;;;;;;2.00;2.00;;;;;23.98;97.34;100403.59;5080050;28;45724;-83